Time;durP1;ratioP1;P1;durP2;ratioP2;P2;SDS_P1;SDS_P2;PMS_P1;PMS_P2;Temp;Humidity;BMP_temperature;BMP_pressure;BME280_temperature;BME280_humidity;BME280_pressure;Samples;Min_cycle;Max_cycle;Signal;HPM_P1;HPM_P2
2023/09/16 00:00:14;;;;;;;0.30;0.30;;;;;;;17.50;63.34;101531.09;5073171;28;20028;-80
2023/09/16 00:02:40;;;;;;;0.20;0.20;;;;;;;17.48;63.76;101532.06;5076486;28;20036;-79
2023/09/16 00:05:07;;;;;;;1.38;0.57;;;;;;;17.45;63.80;101528.56;5075493;28;20037;-79
2023/09/16 00:07:33;;;;;;;0.10;0.10;;;;;;;17.46;63.83;101530.31;5073105;28;20024;-79
2023/09/16 00:09:59;;;;;;;0.00;0.00;;;;;;;17.43;63.51;101530.44;5076258;28;20024;-78
2023/09/16 00:12:26;;;;;;;0.00;0.00;;;;;;;17.41;63.44;101537.66;5075514;28;20041;-81
2023/09/16 00:14:52;;;;;;;0.05;0.05;;;;;;;17.40;63.60;101538.59;5072201;28;20025;-79
2023/09/16 00:17:19;;;;;;;2.35;0.38;;;;;;;17.41;63.32;101528.75;5073920;28;20036;-79
2023/09/16 00:19:45;;;;;;;0.00;0.00;;;;;;;17.39;64.06;101531.47;5073030;28;20017;-77
2023/09/16 00:22:13;;;;;;;0.00;0.00;;;;;;;17.39;64.19;101519.91;5072426;28;20481;-79
2023/09/16 00:24:40;;;;;;;0.10;0.10;;;;;;;17.38;63.64;101519.00;5074036;28;20104;-80
2023/09/16 00:27:07;;;;;;;0.10;0.10;;;;;;;17.38;63.38;101529.72;5074355;28;20117;-79
2023/09/16 00:29:34;;;;;;;0.17;0.17;;;;;;;17.38;63.62;101527.03;5074332;28;20025;-79
2023/09/16 00:32:05;;;;;;;0.10;0.10;;;;;;;17.41;63.33;101526.09;5074410;28;20714;-79
2023/09/16 00:34:31;;;;;;;0.10;0.10;;;;;;;17.37;63.56;101524.44;5071969;28;20039;-79
2023/09/16 00:36:57;;;;;;;0.00;0.00;;;;;;;17.36;63.47;101515.53;5073702;28;20028;-79
2023/09/16 00:39:25;;;;;;;1.25;0.75;;;;;;;17.34;63.86;101517.38;5074105;28;20024;-79
2023/09/16 00:41:51;;;;;;;0.00;0.00;;;;;;;17.34;63.63;101524.56;5070172;28;20021;-79
2023/09/16 00:44:17;;;;;;;0.00;0.00;;;;;;;17.31;64.54;101517.53;5074332;28;20029;-78
2023/09/16 00:46:43;;;;;;;0.17;0.17;;;;;;;17.31;64.40;101525.56;5073338;28;20047;-78
2023/09/16 00:49:10;;;;;;;0.10;0.10;;;;;;;17.30;63.92;101524.66;5072553;28;20107;-79
2023/09/16 00:51:40;;;;;;;0.28;0.28;;;;;;;17.30;64.25;101518.44;5074345;28;20035;-78
2023/09/16 00:54:07;;;;;;;0.20;0.20;;;;;;;17.30;63.95;101519.31;5076181;28;20043;-80
2023/09/16 00:56:34;;;;;;;0.10;0.10;;;;;;;17.33;63.68;101522.81;5073921;28;20056;-78
2023/09/16 00:59:01;;;;;;;0.10;0.10;;;;;;;17.34;64.21;101528.09;5081680;28;20036;-79
2023/09/16 01:01:29;;;;;;;0.28;0.28;;;;;;;17.36;64.22;101528.94;5083123;28;20087;-80
2023/09/16 01:03:56;;;;;;;0.30;0.30;;;;;;;17.38;64.72;101521.69;5066472;28;20033;-80
2023/09/16 01:06:23;;;;;;;0.10;0.10;;;;;;;17.44;64.24;101523.28;5075719;28;20036;-79
2023/09/16 01:08:50;;;;;;;0.00;0.00;;;;;;;17.48;64.06;101516.84;5075838;28;20473;-79
2023/09/16 01:11:16;;;;;;;0.05;0.05;;;;;;;17.52;64.65;101517.63;5069354;28;20081;-79
2023/09/16 01:13:42;;;;;;;0.00;0.00;;;;;;;17.56;64.68;101509.41;5072294;28;20043;-79
2023/09/16 01:16:35;;;;;;;0.00;0.00;;;;;;;17.64;63.81;101517.16;5073109;28;20051;-79
2023/09/16 01:21:52;;;;;;;0.10;0.10;;;;;;;17.66;64.32;101506.34;5069428;28;20398;-79
2023/09/16 01:24:19;;;;;;;0.00;0.00;;;;;;;17.66;64.19;101503.69;5041308;28;20030;-79
2023/09/16 01:26:47;;;;;;;0.35;0.35;;;;;;;17.64;64.77;101501.06;5048797;28;20041;-79
2023/09/16 01:29:15;;;;;;;0.00;0.00;;;;;;;17.63;64.37;101502.88;5045111;28;20117;-78
2023/09/16 01:31:43;;;;;;;0.00;0.00;;;;;;;17.62;64.34;101486.88;5048074;28;20033;-79
2023/09/16 01:34:36;;;;;;;0.60;0.55;;;;;;;17.64;64.71;101503.75;5046347;28;20057;-80
2023/09/16 01:37:04;;;;;;;0.10;0.10;;;;;;;17.60;64.54;101494.94;5044207;28;20040;-80
2023/09/16 01:39:32;;;;;;;0.63;0.63;;;;;;;17.59;64.97;101493.19;5046462;28;20037;-79
2023/09/16 01:42:00;;;;;;;0.00;0.00;;;;;;;17.61;64.48;101498.53;5046100;28;20479;-80
2023/09/16 01:44:26;;;;;;;0.10;0.10;;;;;;;17.62;65.12;101497.59;5043907;28;20418;-78
2023/09/16 01:46:56;;;;;;;0.30;0.30;;;;;;;17.65;65.04;101500.13;5043741;28;20029;-78
2023/09/16 01:49:22;;;;;;;0.40;0.40;;;;;;;17.65;64.54;101500.13;5048899;28;20036;-80
2023/09/16 01:51:49;;;;;;;0.00;0.00;;;;;;;17.63;64.80;101493.97;5050639;28;20044;-79
2023/09/16 01:54:15;;;;;;;0.47;0.45;;;;;;;17.65;64.20;101493.91;5049105;28;20028;-78
2023/09/16 01:56:44;;;;;;;0.20;0.20;;;;;;;17.64;64.57;101495.72;5050364;28;20081;-80
2023/09/16 01:59:10;;;;;;;1.00;1.00;;;;;;;17.63;65.05;101494.84;5050063;28;20025;-79
2023/09/16 02:01:36;;;;;;;0.00;0.00;;;;;;;17.63;64.78;101499.31;5049910;28;20383;-79
2023/09/16 02:04:03;;;;;;;0.63;0.20;;;;;;;17.62;64.90;101494.91;5049887;28;20040;-79
2023/09/16 02:06:29;;;;;;;0.65;0.65;;;;;;;17.62;64.71;101494.91;5044333;28;20394;-80
2023/09/16 02:08:55;;;;;;;0.05;0.05;;;;;;;17.64;64.32;101495.72;5049774;28;20078;-80
2023/09/16 02:11:21;;;;;;;0.30;0.30;;;;;;;17.66;64.37;101492.97;5049289;28;20025;-78
2023/09/16 02:13:47;;;;;;;0.10;0.10;;;;;;;17.66;64.59;101496.53;5043934;28;20025;-77
2023/09/16 02:16:13;;;;;;;0.10;0.10;;;;;;;17.66;65.02;101496.53;5041035;28;20043;-77
2023/09/16 02:18:39;;;;;;;0.65;0.65;;;;;;;17.69;64.91;101492.84;5042684;28;20032;-78
2023/09/16 02:21:07;;;;;;;0.08;0.08;;;;;;;17.69;64.71;101496.41;5045548;28;20036;-78
2023/09/16 02:23:33;;;;;;;0.43;0.43;;;;;;;17.68;64.53;101494.66;5048418;28;20095;-78
2023/09/16 02:26:02;;;;;;;0.10;0.10;;;;;;;17.66;64.96;101498.31;5047749;28;20517;-79
2023/09/16 02:28:28;;;;;;;0.10;0.10;;;;;;;17.62;65.11;101500.28;5039393;28;20040;-78
2023/09/16 02:30:54;;;;;;;0.00;0.00;;;;;;;17.61;64.86;101501.19;5040514;28;20025;-79
2023/09/16 02:33:21;;;;;;;0.10;0.10;;;;;;;17.58;65.02;101502.19;5024485;28;20034;-79
2023/09/16 02:35:47;;;;;;;0.10;0.10;;;;;;;17.58;65.10;101502.19;5029884;28;20037;-79
2023/09/16 02:38:13;;;;;;;0.40;0.40;;;;;;;17.60;65.03;101505.66;5029307;28;20446;-79
2023/09/16 02:40:41;;;;;;;0.10;0.10;;;;;;;17.62;64.61;101498.44;5032727;28;20017;-78
2023/09/16 02:43:07;;;;;;;0.10;0.10;;;;;;;17.64;64.71;101501.06;5033455;28;20107;-78
2023/09/16 02:45:39;;;;;;;0.10;0.10;;;;;;;17.70;65.11;101500.81;5031509;28;20515;-79
2023/09/16 02:48:06;;;;;;;0.38;0.38;;;;;;;17.70;65.38;101495.47;5031546;28;20116;-79
2023/09/16 02:50:39;;;;;;;0.10;0.10;;;;;;;17.75;65.78;101493.47;5032769;28;20080;-79
2023/09/16 02:53:06;;;;;;;0.15;0.15;;;;;;;17.74;65.50;101493.53;5031171;28;20081;-79
2023/09/16 02:55:33;;;;;;;0.38;0.38;;;;;;;17.74;65.53;101489.03;5030291;28;20101;-79
2023/09/16 02:58:00;;;;;;;0.10;0.10;;;;;;;17.77;65.57;101493.44;5026722;28;20487;-79
2023/09/16 03:00:26;;;;;;;0.10;0.10;;;;;;;17.76;65.43;101487.19;5031858;28;20029;-79
2023/09/16 03:02:52;;;;;;;0.15;0.15;;;;;;;17.77;65.62;101486.25;5030858;28;20036;-78
2023/09/16 03:05:18;;;;;;;0.65;0.65;;;;;;;17.78;65.15;101490.69;5027312;28;20052;-78
2023/09/16 03:07:45;;;;;;;1.17;1.05;;;;;;;17.79;65.24;101492.44;5033937;28;20930;-78
2023/09/16 03:10:11;;;;;;;0.47;0.47;;;;;;;17.77;65.75;101485.41;5033440;28;20555;-78
2023/09/16 03:12:38;;;;;;;1.38;0.57;;;;;;;17.80;65.43;101487.94;5032441;28;20025;-78
2023/09/16 03:15:05;;;;;;;0.38;0.38;;;;;;;17.79;65.91;101484.41;5029760;28;20103;-79
2023/09/16 03:17:31;;;;;;;0.10;0.10;;;;;;;17.82;65.88;101472.69;5032306;28;20029;-79
2023/09/16 03:19:57;;;;;;;0.10;0.10;;;;;;;17.85;65.77;101474.34;5032417;28;20394;-78
2023/09/16 03:22:23;;;;;;;0.10;0.10;;;;;;;17.85;65.64;101477.03;5035075;28;20044;-78
2023/09/16 03:24:49;;;;;;;0.10;0.10;;;;;;;17.88;64.88;101472.44;5029202;28;20046;-78
2023/09/16 03:27:16;;;;;;;0.10;0.10;;;;;;;17.90;65.17;101472.34;5034580;28;20116;-79
2023/09/16 03:29:42;;;;;;;0.00;0.00;;;;;;;17.89;65.02;101467.94;5033298;28;20034;-79
2023/09/16 03:32:08;;;;;;;0.00;0.00;;;;;;;17.90;64.87;101464.31;5031895;28;20100;-80
2023/09/16 03:34:34;;;;;;;1.02;1.02;;;;;;;17.88;65.31;101471.53;5030580;28;20432;-80
2023/09/16 03:37:00;;;;;;;2.53;1.73;;;;;;;17.87;65.00;101465.31;5026606;28;20040;-79
2023/09/16 03:39:26;;;;;;;0.03;0.03;;;;;;;17.83;65.15;101463.72;5030828;28;20055;-79
2023/09/16 03:41:52;;;;;;;0.20;0.20;;;;;;;17.82;64.72;101461.06;5026328;28;20037;-78
2023/09/16 03:44:18;;;;;;;1.35;0.40;;;;;;;17.79;64.68;101465.63;5021273;28;20029;-79
2023/09/16 03:46:44;;;;;;;2.08;0.45;;;;;;;17.75;64.84;101466.66;5028116;28;20033;-78
2023/09/16 03:49:10;;;;;;;0.00;0.00;;;;;;;17.70;65.13;101459.78;5032509;28;20495;-78
2023/09/16 03:51:38;;;;;;;0.43;0.43;;;;;;;17.68;64.97;101467.84;5027347;28;20025;-79
2023/09/16 03:54:06;;;;;;;0.52;0.52;;;;;;;17.64;64.65;101460.88;5028819;28;20037;-78
2023/09/16 03:56:33;;;;;;;0.10;0.10;;;;;;;17.60;64.67;101453.91;5033073;28;20368;-78
2023/09/16 03:58:59;;;;;;;0.10;0.10;;;;;;;17.56;64.64;101460.31;5027803;28;20029;-78
2023/09/16 04:01:25;;;;;;;0.10;0.10;;;;;;;17.52;64.49;101456.88;5028750;28;20037;-78
2023/09/16 04:03:51;;;;;;;0.13;0.13;;;;;;;17.48;64.57;101454.38;5031661;28;20084;-78
2023/09/16 04:06:17;;;;;;;0.10;0.10;;;;;;;17.43;64.56;101455.44;5024927;28;20030;-79
2023/09/16 04:08:43;;;;;;;0.10;0.10;;;;;;;17.38;64.67;101452.03;5022228;28;20724;-80
2023/09/16 04:11:11;;;;;;;0.55;0.55;;;;;;;17.33;64.63;101459.38;5030885;28;20029;-80
2023/09/16 04:13:37;;;;;;;1.60;0.63;;;;;;;17.29;64.84;101460.44;5032599;28;20053;-79
2023/09/16 04:16:03;;;;;;;0.10;0.10;;;;;;;17.29;64.55;101457.78;5029112;28;20025;-80
2023/09/16 04:18:29;;;;;;;0.00;0.00;;;;;;;17.28;64.30;101456.03;5025311;28;20103;-78
2023/09/16 04:20:56;;;;;;;0.10;0.10;;;;;;;17.26;64.20;101455.22;5028622;28;20032;-79
2023/09/16 04:23:22;;;;;;;0.95;0.95;;;;;;;17.23;64.59;101458.00;5032176;28;20037;-80
2023/09/16 04:25:58;;;;;;;0.10;0.10;;;;;;;17.24;64.08;101459.75;5036105;28;20025;-79
2023/09/16 04:28:24;;;;;;;0.30;0.30;;;;;;;17.17;64.29;101463.59;5034627;28;20387;-80
2023/09/16 04:30:51;;;;;;;0.10;0.10;;;;;;;17.12;64.51;101456.63;5034393;28;20446;-80
2023/09/16 04:33:19;;;;;;;0.00;0.00;;;;;;;17.10;64.40;101457.59;5034085;28;20094;-78
2023/09/16 04:35:48;;;;;;;0.10;0.10;;;;;;;17.06;64.96;101458.63;5033602;28;20544;-78
2023/09/16 04:38:15;;;;;;;0.30;0.30;;;;;;;17.03;64.48;101456.09;5031856;28;20034;-77
2023/09/16 04:40:42;;;;;;;0.10;0.10;;;;;;;17.01;64.57;101458.81;5033266;28;20022;-78
2023/09/16 04:43:09;;;;;;;0.35;0.35;;;;;;;16.97;64.67;101455.38;5023405;28;20029;-79
2023/09/16 04:45:36;;;;;;;0.10;0.10;;;;;;;16.95;64.53;101454.56;5031580;28;20108;-78
2023/09/16 04:48:04;;;;;;;0.08;0.08;;;;;;;16.92;64.47;101459.16;5022768;28;20037;-78
2023/09/16 04:50:31;;;;;;;0.10;0.10;;;;;;;16.90;64.76;101452.97;5023437;28;20041;-78
2023/09/16 04:52:58;;;;;;;0.10;0.10;;;;;;;16.88;64.58;101452.13;5022286;28;20029;-78
2023/09/16 04:55:25;;;;;;;0.03;0.03;;;;;;;16.86;64.89;101456.66;5029203;28;20065;-78
2023/09/16 04:57:51;;;;;;;0.10;0.10;;;;;;;16.82;64.80;101451.44;5028922;28;20040;-78
2023/09/16 05:00:17;;;;;;;0.50;0.38;;;;;;;16.81;64.24;101452.38;5028849;28;20021;-78
2023/09/16 05:02:48;;;;;;;0.30;0.30;;;;;;;16.79;64.87;101448.84;5023416;28;20431;-78
2023/09/16 05:05:14;;;;;;;0.10;0.10;;;;;;;16.77;64.69;101450.75;5020816;28;20036;-78
2023/09/16 05:07:41;;;;;;;0.10;0.10;;;;;;;16.76;64.86;101448.09;5019445;28;20042;-78
2023/09/16 05:10:07;;;;;;;0.10;0.10;;;;;;;16.75;64.88;101451.72;5023460;28;20029;-79
2023/09/16 05:12:33;;;;;;;0.00;0.00;;;;;;;16.73;64.75;101449.09;5024432;28;20072;-80
2023/09/16 05:14:59;;;;;;;0.25;0.25;;;;;;;16.71;64.99;101450.97;5021162;28;20037;-78
2023/09/16 05:17:26;;;;;;;0.32;0.32;;;;;;;16.69;65.02;101452.81;5028882;28;20029;-80
2023/09/16 05:19:52;;;;;;;0.10;0.10;;;;;;;16.68;64.47;101451.06;5032282;28;20037;-79
2023/09/16 05:22:18;;;;;;;0.25;0.25;;;;;;;16.68;64.70;101445.69;5033289;28;20030;-79
2023/09/16 05:24:44;;;;;;;0.10;0.10;;;;;;;16.66;65.15;101459.13;5025524;28;20042;-80
2023/09/16 05:27:10;;;;;;;0.25;0.25;;;;;;;16.65;65.02;101461.88;5022548;28;20025;-78
2023/09/16 05:29:36;;;;;;;0.10;0.10;;;;;;;16.58;65.20;101455.84;5023757;28;20073;-78
2023/09/16 05:32:02;;;;;;;1.25;0.35;;;;;;;16.55;65.36;101457.75;5028295;28;20116;-78
2023/09/16 05:34:28;;;;;;;0.00;0.00;;;;;;;16.42;66.08;101454.66;5021393;28;20034;-79
2023/09/16 05:36:54;;;;;;;0.17;0.17;;;;;;;16.59;65.36;101462.09;5032586;28;20056;-78
2023/09/16 05:39:20;;;;;;;0.40;0.40;;;;;;;16.59;65.29;101454.94;5024276;28;20406;-78
2023/09/16 05:41:49;;;;;;;0.10;0.10;;;;;;;16.61;65.66;101457.53;5026908;28;20104;-79
2023/09/16 05:44:19;;;;;;;0.10;0.10;;;;;;;16.61;65.37;101454.88;5023083;28;20041;-78
2023/09/16 05:46:46;;;;;;;0.10;0.10;;;;;;;16.60;65.95;101453.16;5031195;28;20031;-78
2023/09/16 05:49:12;;;;;;;0.10;0.10;;;;;;;16.63;65.59;101459.22;5037617;28;20363;-78
2023/09/16 05:51:38;;;;;;;0.13;0.13;;;;;;;16.63;65.95;101463.72;5028779;28;20013;-78
2023/09/16 05:54:05;;;;;;;0.10;0.10;;;;;;;16.66;65.34;101468.97;5030726;28;20406;-78
2023/09/16 05:56:32;;;;;;;0.03;0.03;;;;;;;16.66;65.80;101466.31;5030883;28;20034;-78
2023/09/16 05:58:59;;;;;;;0.22;0.22;;;;;;;16.67;66.39;101460.00;5032435;28;20025;-79
2023/09/16 06:01:25;;;;;;;0.10;0.10;;;;;;;16.67;65.89;101465.34;5032876;28;20475;-79
2023/09/16 06:03:51;;;;;;;0.10;0.10;;;;;;;16.70;65.53;101465.25;5026696;28;20460;-78
2023/09/16 06:06:18;;;;;;;0.30;0.30;;;;;;;16.71;65.57;101469.69;5030467;28;20049;-78
2023/09/16 06:08:44;;;;;;;0.68;0.68;;;;;;;16.73;65.58;101470.47;5027560;28;20499;-78
2023/09/16 06:11:10;;;;;;;0.00;0.00;;;;;;;16.76;65.79;101474.84;5035018;28;20033;-78
2023/09/16 06:13:36;;;;;;;2.35;0.52;;;;;;;16.79;65.72;101474.75;5037317;28;20100;-79
2023/09/16 06:16:02;;;;;;;0.00;0.00;;;;;;;16.82;65.94;101482.66;5030513;28;20034;-79
2023/09/16 06:18:28;;;;;;;5.93;0.60;;;;;;;16.85;66.19;101489.69;5032744;28;20108;-79
2023/09/16 06:20:55;;;;;;;0.20;0.20;;;;;;;16.89;65.33;101496.72;5028528;28;20041;-79
2023/09/16 06:23:21;;;;;;;0.10;0.10;;;;;;;16.90;65.76;101495.78;5027078;28;20060;-79
2023/09/16 06:25:47;;;;;;;0.10;0.10;;;;;;;16.92;65.84;101500.19;5026235;28;20037;-79
2023/09/16 06:28:13;;;;;;;2.38;0.50;;;;;;;16.96;65.88;101504.50;5035099;28;20072;-79
2023/09/16 06:30:39;;;;;;;0.10;0.10;;;;;;;17.00;65.69;101499.00;5020812;28;20029;-79
2023/09/16 06:33:05;;;;;;;0.10;0.10;;;;;;;17.04;65.83;101503.34;5029924;28;20080;-79
2023/09/16 06:35:31;;;;;;;0.25;0.25;;;;;;;17.07;65.79;101509.47;5028497;28;20111;-79
2023/09/16 06:37:57;;;;;;;0.00;0.00;;;;;;;17.11;65.61;101500.38;5031991;28;20030;-79
2023/09/16 06:40:23;;;;;;;0.10;0.10;;;;;;;17.16;65.77;101499.31;5021443;28;20041;-79
2023/09/16 06:42:49;;;;;;;0.00;0.00;;;;;;;17.20;65.91;101491.13;5023156;28;20155;-80
2023/09/16 06:45:15;;;;;;;0.10;0.10;;;;;;;17.20;65.83;101490.28;5029902;28;20040;-79
2023/09/16 06:47:41;;;;;;;0.10;0.10;;;;;;;17.23;65.96;101496.34;5034530;28;20064;-80
2023/09/16 06:50:08;;;;;;;0.10;0.10;;;;;;;17.28;65.96;101488.16;5027041;28;20037;-84
2023/09/16 06:52:35;;;;;;;0.10;0.10;;;;;;;17.38;65.75;101491.38;5014151;28;20048;-79
2023/09/16 06:55:01;;;;;;;0.47;0.47;;;;;;;17.42;65.88;101491.19;5018015;28;20026;-78
2023/09/16 06:57:27;;;;;;;0.30;0.30;;;;;;;17.48;65.84;101498.09;5015291;28;20041;-79
2023/09/16 06:59:53;;;;;;;1.65;1.45;;;;;;;17.54;66.05;101499.69;5015022;28;20572;-79
2023/09/16 07:02:19;;;;;;;0.00;0.00;;;;;;;17.61;65.89;101496.69;5015747;28;20051;-79
2023/09/16 07:04:46;;;;;;;0.10;0.10;;;;;;;17.66;65.81;101493.84;5016461;28;20041;-77
2023/09/16 07:07:12;;;;;;;0.10;0.10;;;;;;;17.75;65.61;101496.16;5020238;28;20084;-78
2023/09/16 07:09:39;;;;;;;0.10;0.10;;;;;;;17.86;65.85;101497.56;5016830;28;20034;-78
2023/09/16 07:12:07;;;;;;;0.40;0.40;;;;;;;17.92;65.46;101494.63;5020745;28;20033;-78
2023/09/16 07:14:37;;;;;;;0.10;0.10;;;;;;;17.92;65.78;101490.13;5022084;28;20026;-77
2023/09/16 07:17:03;;;;;;;0.20;0.20;;;;;;;17.96;65.47;101498.94;5011926;28;20152;-78
2023/09/16 07:19:29;;;;;;;0.17;0.17;;;;;;;18.02;65.60;101496.03;5012717;28;20053;-77
2023/09/16 07:21:55;;;;;;;0.52;0.52;;;;;;;18.05;65.65;101495.88;5018386;28;20060;-77
2023/09/16 07:24:21;;;;;;;2.50;0.52;;;;;;;18.10;65.76;101503.75;5022593;28;20041;-77
2023/09/16 07:26:49;;;;;;;0.10;0.10;;;;;;;18.14;66.08;101497.31;5015518;28;20093;-77
2023/09/16 07:29:19;;;;;;;0.10;0.10;;;;;;;18.23;65.71;101498.72;5022911;28;20033;-77
2023/09/16 07:31:45;;;;;;;0.68;0.68;;;;;;;18.25;65.83;101503.09;5012345;28;20088;-78
2023/09/16 07:34:11;;;;;;;0.52;0.52;;;;;;;18.33;65.96;101504.59;5013099;28;20038;-77
2023/09/16 07:36:37;;;;;;;0.00;0.00;;;;;;;18.40;65.72;101498.03;5020692;28;20036;-77
2023/09/16 07:39:03;;;;;;;0.98;0.68;;;;;;;18.45;66.44;101497.84;5025308;28;20030;-78
2023/09/16 07:41:29;;;;;;;0.10;0.10;;;;;;;18.51;65.34;101501.13;5025461;28;20030;-78
2023/09/16 07:43:55;;;;;;;0.15;0.15;;;;;;;18.59;65.19;101504.38;5025645;28;20057;-78
2023/09/16 07:46:21;;;;;;;0.10;0.10;;;;;;;18.63;65.83;101499.75;5034006;28;20029;-79
2023/09/16 07:48:47;;;;;;;0.10;0.10;;;;;;;18.71;65.45;101500.25;5027316;28;20030;-79
2023/09/16 07:51:13;;;;;;;0.25;0.25;;;;;;;18.76;65.72;101497.38;5014829;28;20053;-80
2023/09/16 07:53:40;;;;;;;0.20;0.20;;;;;;;18.85;65.63;101498.78;5022684;28;20527;-80
2023/09/16 07:56:06;;;;;;;0.10;0.10;;;;;;;18.94;66.07;101505.59;5020380;28;20033;-79
2023/09/16 07:58:32;;;;;;;1.10;1.10;;;;;;;19.02;65.95;101516.88;5024243;28;20029;-79
2023/09/16 08:00:58;;;;;;;0.50;0.50;;;;;;;19.10;65.46;101511.16;5015024;28;20068;-80
2023/09/16 08:03:24;;;;;;;1.83;1.73;;;;;;;19.17;65.27;101515.31;5019475;28;20037;-80
2023/09/16 08:05:50;;;;;;;4.22;2.47;;;;;;;19.25;65.38;101521.19;5024424;28;20396;-81
2023/09/16 08:08:16;;;;;;;0.10;0.10;;;;;;;19.36;65.55;101520.69;5022520;28;20029;-79
2023/09/16 08:10:49;;;;;;;0.10;0.10;;;;;;;19.45;66.13;101527.47;5026505;28;20053;-79
2023/09/16 08:13:17;;;;;;;0.57;0.57;;;;;;;19.54;65.52;101524.38;5032214;28;20561;-78
2023/09/16 08:15:43;;;;;;;0.57;0.57;;;;;;;19.58;65.50;101528.63;5021211;28;20038;-79
2023/09/16 08:18:09;;;;;;;4.05;0.63;;;;;;;19.67;65.09;101517.44;5025167;28;20033;-78
2023/09/16 08:20:35;;;;;;;0.10;0.10;;;;;;;19.77;65.26;101522.41;5024181;28;20076;-78
2023/09/16 08:23:01;;;;;;;0.10;0.10;;;;;;;19.92;64.80;101518.13;5014357;28;20109;-78
2023/09/16 08:25:27;;;;;;;0.22;0.22;;;;;;;20.03;64.67;101524.69;5017982;28;20037;-79
2023/09/16 08:27:53;;;;;;;0.10;0.10;;;;;;;20.14;64.73;101517.94;5024066;28;20109;-78
2023/09/16 08:30:21;;;;;;;1.00;0.80;;;;;;;20.27;64.29;101524.44;5025379;28;20029;-79
2023/09/16 08:32:47;;;;;;;0.10;0.10;;;;;;;20.47;63.84;101519.88;5018084;28;20055;-79
2023/09/16 08:35:13;;;;;;;0.35;0.35;;;;;;;20.61;63.36;101522.75;5014466;28;20029;-80
2023/09/16 08:37:39;;;;;;;0.20;0.20;;;;;;;20.75;63.40;101518.47;5014475;28;20498;-80
2023/09/16 08:40:06;;;;;;;0.00;0.00;;;;;;;20.87;63.29;101515.13;5017143;28;20025;-79
2023/09/16 08:42:48;;;;;;;0.13;0.13;;;;;;;21.03;62.68;101520.59;5026980;28;20075;-79
2023/09/16 08:45:15;;;;;;;0.98;0.98;;;;;;;21.10;62.66;101518.44;5014135;28;20129;-79
2023/09/16 08:47:48;;;;;;;0.08;0.08;;;;;;;21.16;62.81;101520.81;5015556;28;20026;-79
2023/09/16 08:50:17;;;;;;;2.30;1.05;;;;;;;21.35;62.50;101520.69;5015244;28;20029;-79
2023/09/16 08:55:21;;;;;;;0.10;0.10;;;;;;;21.59;62.00;101526.56;5091614;27;20360;-79
2023/09/16 08:57:55;;;;;;;0.45;0.45;;;;;;;21.80;61.67;101529.03;5092008;28;20043;-79
2023/09/16 09:00:22;;;;;;;0.20;0.20;;;;;;;21.93;61.51;101532.75;5093111;28;20024;-80
2023/09/16 09:02:50;;;;;;;0.10;0.10;;;;;;;22.11;61.53;101535.38;5091052;28;20028;-80
2023/09/16 09:05:18;;;;;;;0.20;0.20;;;;;;;22.25;61.24;101538.13;5092410;28;20016;-80
2023/09/16 09:07:44;;;;;;;0.20;0.20;;;;;;;22.39;61.04;101533.78;5093402;28;20103;-79
2023/09/16 09:10:12;;;;;;;0.10;0.10;;;;;;;22.54;60.86;101532.88;5091564;28;20500;-79
2023/09/16 09:12:41;;;;;;;0.30;0.30;;;;;;;22.72;60.21;101532.72;5091909;28;20409;-80
2023/09/16 09:15:11;;;;;;;0.10;0.10;;;;;;;22.90;60.55;101537.03;5092697;28;20040;-80
2023/09/16 09:17:43;;;;;;;0.35;0.35;;;;;;;23.06;59.52;101538.75;5092459;28;20032;-80
2023/09/16 09:20:14;;;;;;;0.30;0.30;;;;;;;23.24;60.08;101534.94;5093447;28;20036;-80
2023/09/16 09:22:40;;;;;;;4.65;0.70;;;;;;;23.38;59.26;101539.47;5093072;28;20039;-80
2023/09/16 09:25:07;;;;;;;0.10;0.10;;;;;;;23.52;59.03;101535.03;5089434;28;20027;-80
2023/09/16 09:27:34;;;;;;;0.38;0.38;;;;;;;23.69;59.39;101536.63;5088460;28;20040;-80
2023/09/16 09:30:00;;;;;;;0.08;0.08;;;;;;;23.86;59.06;101538.25;5092336;28;20047;-80
2023/09/16 09:32:31;;;;;;;0.75;0.75;;;;;;;23.99;56.16;101536.53;5093048;28;20043;-81
2023/09/16 09:34:58;;;;;;;0.10;0.10;;;;;;;24.16;57.66;101539.94;5092809;28;20048;-79
2023/09/16 09:37:24;;;;;;;0.13;0.13;;;;;;;24.31;57.98;101532.63;5093231;28;20031;-79
2023/09/16 09:40:09;;;;;;;0.20;0.20;;;;;;;24.52;56.72;101531.19;5093228;28;20024;-79
2023/09/16 09:42:44;;;;;;;0.38;0.32;;;;;;;24.67;56.01;101533.84;5092515;28;20447;-79
2023/09/16 09:45:10;;;;;;;0.15;0.15;;;;;;;24.75;57.19;101536.91;5092204;28;20035;-79
2023/09/16 09:47:38;;;;;;;0.68;0.68;;;;;;;24.83;57.51;101534.50;5093684;28;20415;-79
2023/09/16 09:50:07;;;;;;;0.10;0.10;;;;;;;24.93;56.57;101533.88;5093640;28;20020;-79
2023/09/16 09:52:34;;;;;;;0.25;0.25;;;;;;;24.99;53.62;101536.16;5092977;28;20040;-79
2023/09/16 09:55:01;;;;;;;0.00;0.00;;;;;;;25.07;55.13;101528.34;5092553;28;20035;-79
2023/09/16 09:57:28;;;;;;;0.15;0.15;;;;;;;25.19;55.63;101535.59;5092473;28;20032;-79
2023/09/16 09:59:57;;;;;;;0.10;0.10;;;;;;;25.27;52.24;101536.91;5092357;28;20043;-79
2023/09/16 10:02:26;;;;;;;0.22;0.22;;;;;;;25.45;54.58;101543.75;5083496;28;20028;-79
2023/09/16 10:05:01;;;;;;;0.10;0.10;;;;;;;25.56;54.64;101542.09;5076765;28;20112;-79
2023/09/16 10:07:28;;;;;;;0.38;0.38;;;;;;;25.61;54.28;101548.94;5068371;28;20025;-79
2023/09/16 10:09:55;;;;;;;0.22;0.22;;;;;;;25.65;53.54;101538.72;5076010;28;20059;-77
2023/09/16 10:12:22;;;;;;;0.10;0.10;;;;;;;25.68;53.25;101538.50;5077637;28;20024;-78
2023/09/16 10:14:48;;;;;;;0.40;0.40;;;;;;;25.71;52.80;101540.13;5079067;28;20040;-79
2023/09/16 10:17:15;;;;;;;0.20;0.20;;;;;;;25.77;53.16;101526.97;5080570;28;20036;-79
2023/09/16 10:19:43;;;;;;;0.03;0.03;;;;;;;25.79;53.15;101533.13;5066168;28;20056;-79
2023/09/16 10:22:11;;;;;;;0.10;0.10;;;;;;;25.78;50.87;101531.44;5080439;28;20111;-79
2023/09/16 10:24:41;;;;;;;0.20;0.20;;;;;;;25.88;52.43;101533.44;5078919;28;20020;-77
2023/09/16 10:27:14;;;;;;;0.30;0.28;;;;;;;25.91;52.77;101530.53;5079970;28;20699;-80
2023/09/16 10:29:42;;;;;;;0.00;0.00;;;;;;;25.90;51.99;101526.06;5081304;28;20051;-80
2023/09/16 10:32:09;;;;;;;0.30;0.30;;;;;;;25.93;52.13;101514.97;5073352;28;20062;-79
2023/09/16 10:34:37;;;;;;;0.40;0.38;;;;;;;25.92;51.25;101521.38;5079915;28;20037;-76
2023/09/16 10:37:03;;;;;;;0.98;0.98;;;;;;;25.94;52.14;101524.84;5080282;28;20028;-77
2023/09/16 10:39:33;;;;;;;0.03;0.03;;;;;;;25.97;52.15;101532.75;5081373;28;20032;-77
2023/09/16 10:42:00;;;;;;;0.05;0.05;;;;;;;25.95;50.68;101523.88;5078105;28;20402;-79
2023/09/16 10:44:28;;;;;;;0.55;0.55;;;;;;;26.03;51.65;101517.88;5076736;28;20112;-79
2023/09/16 10:46:56;;;;;;;0.98;0.30;;;;;;;26.08;51.72;101513.88;5078776;28;20123;-78
2023/09/16 10:49:22;;;;;;;0.15;0.15;;;;;;;26.16;51.23;101514.13;5080622;28;20499;-78
2023/09/16 10:51:48;;;;;;;7.13;0.80;;;;;;;26.26;48.48;101510.75;5078376;28;20055;-77
2023/09/16 10:54:26;;;;;;;0.32;0.32;;;;;;;26.45;48.76;101507.47;5078619;28;20555;-79
2023/09/16 10:56:56;;;;;;;0.13;0.13;;;;;;;26.61;49.99;101507.16;5075345;28;20040;-80
2023/09/16 10:59:27;;;;;;;0.13;0.13;;;;;;;26.75;48.80;101504.22;5079028;28;20040;-80
2023/09/16 11:02:03;;;;;;;0.00;0.00;;;;;;;26.88;46.41;101498.72;5076543;28;20032;-79
2023/09/16 11:04:31;;;;;;;0.20;0.20;;;;;;;26.94;43.46;101497.34;5078658;28;20046;-79
2023/09/16 11:06:58;;;;;;;0.32;0.32;;;;;;;27.09;46.73;101501.56;5074983;28;20033;-80
2023/09/16 11:09:25;;;;;;;0.10;0.10;;;;;;;27.18;46.54;101497.25;5079793;28;20032;-80
2023/09/16 11:11:52;;;;;;;0.20;0.20;;;;;;;27.28;46.39;101494.66;5076637;28;20041;-80
2023/09/16 11:14:21;;;;;;;0.00;0.00;;;;;;;27.33;43.64;101492.44;5078243;28;20059;-79
2023/09/16 11:16:49;;;;;;;0.00;0.00;;;;;;;27.43;45.65;101490.72;5079932;28;20040;-79
2023/09/16 11:19:20;;;;;;;0.15;0.15;;;;;;;27.46;45.89;101488.75;5080650;28;20111;-81
2023/09/16 11:21:46;;;;;;;0.00;0.00;;;;;;;27.56;44.82;101486.97;5075650;28;20032;-78
2023/09/16 11:24:13;;;;;;;0.00;0.00;;;;;;;27.67;46.10;101484.25;5075078;28;20095;-81
2023/09/16 11:26:39;;;;;;;0.43;0.38;;;;;;;27.74;45.85;101484.63;5070206;28;20036;-78
2023/09/16 11:29:26;;;;;;;0.00;0.00;;;;;;;27.83;44.55;101485.72;5078593;28;20036;-80